Time;durP1;ratioP1;P1;durP2;ratioP2;P2;SDS_P1;SDS_P2;PMS_P1;PMS_P2;Temp;Humidity;BMP_temperature;BMP_pressure;BME280_temperature;BME280_humidity;BME280_pressure;Samples;Min_cycle;Max_cycle;Signal;HPM_P1;HPM_P2
2023/05/22 00:01:41;;;;;;;9.38;4.75;;;;;;;16.39;100.00;100099.31;5000349;28;20090;-76
2023/05/22 00:04:07;;;;;;;8.88;4.70;;;;;;;16.42;100.00;100107.13;4996053;28;20026;-76
2023/05/22 00:06:32;;;;;;;11.20;5.00;;;;;;;16.44;100.00;100100.22;4995022;28;20092;-76
2023/05/22 00:08:58;;;;;;;11.73;4.97;;;;;;;16.13;100.00;100035.72;4994627;28;20057;-77
2023/05/22 00:11:24;;;;;;;8.27;4.47;;;;;;;16.54;100.00;100094.19;4994822;28;20038;-76
2023/05/22 00:13:52;;;;;;;9.75;4.40;;;;;;;16.44;100.00;100088.03;4994336;28;20026;-76
2023/05/22 00:16:17;;;;;;;9.88;4.50;;;;;;;16.44;100.00;100087.19;4994327;28;20073;-76
2023/05/22 00:18:43;;;;;;;9.52;4.72;;;;;;;16.41;100.00;100088.03;4991204;28;20116;-77
2023/05/22 00:21:09;;;;;;;10.02;4.50;;;;;;;16.34;100.00;100074.06;4994393;28;20113;-76
2023/05/22 00:23:34;;;;;;;7.10;4.38;;;;;;;16.38;100.00;100072.38;4994081;28;20034;-76
2023/05/22 00:26:00;;;;;;;8.98;4.55;;;;;;;16.48;100.00;100081.97;4994314;28;20057;-76
2023/05/22 00:28:26;;;;;;;8.85;4.57;;;;;;;16.15;100.00;100021.00;4991723;28;20030;-78
2023/05/22 00:30:52;;;;;;;12.55;5.18;;;;;;;16.54;100.00;100088.97;4992465;28;20524;-77
2023/05/22 00:33:17;;;;;;;8.85;4.50;;;;;;;16.34;100.00;100029.78;4991546;28;20027;-77
2023/05/22 00:35:43;;;;;;;8.10;4.90;;;;;;;16.26;100.00;100025.41;4993782;28;20596;-76
2023/05/22 00:38:08;;;;;;;11.85;4.55;;;;;;;16.64;100.00;100097.72;4990837;28;20030;-76
2023/05/22 00:40:34;;;;;;;9.73;4.97;;;;;;;16.65;100.00;100089.91;4991943;28;20050;-77
2023/05/22 00:42:59;;;;;;;11.48;5.00;;;;;;;16.62;100.00;100069.06;4992440;28;20046;-76
2023/05/22 00:45:25;;;;;;;10.35;4.78;;;;;;;16.85;100.00;100093.47;4993658;28;20026;-77
2023/05/22 00:47:51;;;;;;;8.95;4.30;;;;;;;16.85;100.00;100093.47;4993936;28;20026;-77
2023/05/22 00:50:17;;;;;;;8.75;4.38;;;;;;;16.86;100.00;100097.84;4990591;28;20018;-76
2023/05/22 00:52:45;;;;;;;8.95;4.80;;;;;;;16.88;100.00;100099.59;4994050;28;20030;-77
2023/05/22 00:55:30;;;;;;;9.77;5.13;;;;;;;16.76;100.00;100089.09;5007972;28;20077;-77
2023/05/22 00:57:56;;;;;;;8.85;5.05;;;;;;;16.48;100.00;100091.53;5010289;28;20097;-77
2023/05/22 01:00:22;;;;;;;10.32;5.20;;;;;;;16.23;100.00;100096.56;5001436;28;20151;-77
2023/05/22 01:02:48;;;;;;;7.93;5.07;;;;;;;16.26;100.00;100099.22;4991016;28;20132;-78
2023/05/22 01:05:16;;;;;;;10.70;5.28;;;;;;;16.29;100.00;100093.16;4990890;28;20038;-78
2023/05/22 01:07:43;;;;;;;10.82;5.45;;;;;;;16.39;100.00;100110.59;4990597;28;20493;-77
2023/05/22 01:10:09;;;;;;;10.02;5.22;;;;;;;16.41;100.00;100079.34;4990178;28;20023;-77
2023/05/22 01:12:46;;;;;;;6.90;5.15;;;;;;;16.54;100.00;100101.16;4986927;28;20176;-76
2023/05/22 01:15:24;;;;;;;10.55;5.22;;;;;;;16.55;100.00;100098.53;4990595;28;20116;-78
2023/05/22 01:17:58;;;;;;;9.23;4.95;;;;;;;16.60;100.00;100102.06;4990621;28;20620;-76
2023/05/22 01:20:35;;;;;;;8.00;4.40;;;;;;;16.64;100.00;100097.72;4974110;28;20093;-76
2023/05/22 01:23:19;;;;;;;9.20;4.80;;;;;;;16.55;100.00;100101.16;4990365;28;20035;-77
2023/05/22 01:26:32;;;;;;;9.90;5.43;;;;;;;16.48;100.00;100107.19;4990582;28;20531;-77
2023/05/22 01:29:20;;;;;;;11.60;5.10;;;;;;;16.53;100.00;100100.25;4960732;28;20066;-76
2023/05/22 01:31:47;;;;;;;10.93;5.10;;;;;;;16.54;100.00;100088.13;4951819;29;20027;-76
2023/05/22 01:34:15;;;;;;;10.93;5.15;;;;;;;16.57;100.00;100083.78;4951885;29;20576;-78
2023/05/22 01:36:45;;;;;;;12.65;6.03;;;;;;;16.12;100.00;100018.34;4951620;29;20036;-77
2023/05/22 01:39:11;;;;;;;12.48;5.60;;;;;;;16.34;100.00;100081.88;4951216;29;20051;-76
2023/05/22 01:41:39;;;;;;;11.10;5.97;;;;;;;16.33;100.00;100094.91;4935120;29;20052;-77
2023/05/22 01:44:04;;;;;;;8.68;5.25;;;;;;;15.92;100.00;100020.81;4951259;29;20486;-76
2023/05/22 01:46:30;;;;;;;10.55;5.72;;;;;;;16.43;100.00;100090.66;4951432;28;20134;-76
2023/05/22 01:48:56;;;;;;;10.20;5.53;;;;;;;16.09;100.00;100025.31;4951419;29;20094;-77
2023/05/22 01:51:38;;;;;;;9.20;4.88;;;;;;;16.07;100.00;100014.00;4951459;29;20047;-77
2023/05/22 01:54:18;;;;;;;12.10;5.70;;;;;;;16.60;100.00;100085.56;4950658;28;20038;-78
2023/05/22 01:57:02;;;;;;;9.55;5.13;;;;;;;16.01;100.00;99997.47;4950403;29;20039;-77
2023/05/22 01:59:47;;;;;;;8.35;5.22;;;;;;;16.53;100.00;100083.75;4951280;29;20517;-77
2023/05/22 02:02:16;;;;;;;9.45;5.70;;;;;;;16.56;100.00;100084.66;4948341;29;20093;-76
2023/05/22 02:04:46;;;;;;;11.07;5.50;;;;;;;16.56;100.00;100078.56;4965615;28;20097;-77
2023/05/22 02:07:13;;;;;;;10.82;5.20;;;;;;;16.45;100.00;100078.50;4992452;28;20030;-77
2023/05/22 02:09:40;;;;;;;8.93;5.60;;;;;;;16.48;100.00;100083.72;4991176;28;20117;-77
2023/05/22 02:12:06;;;;;;;9.93;5.63;;;;;;;16.54;100.00;100077.69;4992255;28;20053;-76
2023/05/22 02:14:32;;;;;;;8.93;5.10;;;;;;;16.61;100.00;100082.06;4991471;28;20026;-77
2023/05/22 02:17:00;;;;;;;12.88;5.20;;;;;;;16.66;100.00;100082.97;4978967;28;20069;-76
2023/05/22 02:19:26;;;;;;;13.30;5.10;;;;;;;16.59;100.00;100079.44;5005668;28;20039;-77
2023/05/22 02:21:52;;;;;;;10.20;5.55;;;;;;;16.44;100.00;100061.13;4991191;28;20122;-77
2023/05/22 02:24:17;;;;;;;11.35;5.13;;;;;;;16.31;100.00;100084.50;4992008;28;20084;-77
2023/05/22 02:26:43;;;;;;;9.20;5.32;;;;;;;16.14;100.00;100070.47;4991488;28;20109;-77
2023/05/22 02:29:08;;;;;;;10.43;5.45;;;;;;;16.09;100.00;100064.38;4991776;28;20136;-77
2023/05/22 02:31:34;;;;;;;13.68;4.85;;;;;;;15.71;100.00;100002.41;4990943;28;20065;-76
2023/05/22 02:34:00;;;;;;;11.35;5.15;;;;;;;16.16;100.00;100084.34;4991009;28;20022;-77
2023/05/22 02:36:25;;;;;;;10.52;5.10;;;;;;;16.14;100.00;100078.28;4990285;28;20038;-77
2023/05/22 02:38:51;;;;;;;11.43;5.40;;;;;;;16.13;100.00;100082.59;4991461;28;20027;-77
2023/05/22 02:41:17;;;;;;;10.68;6.40;;;;;;;16.10;100.00;100084.31;4991734;28;20094;-76
2023/05/22 02:43:42;;;;;;;11.55;5.55;;;;;;;15.64;100.00;100023.16;4992859;28;20433;-77
2023/05/22 02:46:08;;;;;;;10.50;5.30;;;;;;;15.81;100.00;100072.78;4991602;28;20106;-77
2023/05/22 02:48:33;;;;;;;8.15;5.50;;;;;;;15.72;100.00;100077.03;4991693;28;20038;-76
2023/05/22 02:50:58;;;;;;;10.65;5.65;;;;;;;15.67;100.00;100076.97;4991785;28;20038;-76
2023/05/22 02:53:24;;;;;;;9.68;5.38;;;;;;;15.64;100.00;100077.81;4991385;28;20030;-77
2023/05/22 02:55:51;;;;;;;10.23;5.97;;;;;;;15.67;100.00;100077.81;4992029;28;20109;-76
2023/05/22 02:58:17;;;;;;;9.73;5.25;;;;;;;15.66;100.00;100076.09;4991523;28;20485;-78
2023/05/22 03:00:44;;;;;;;14.73;5.72;;;;;;;15.70;100.00;100084.78;4991561;28;20034;-77
2023/05/22 03:03:10;;;;;;;14.00;5.35;;;;;;;15.37;100.00;100032.44;4989250;28;20042;-77
2023/05/22 03:05:36;;;;;;;12.63;5.75;;;;;;;15.47;100.00;100049.00;4991016;28;20066;-74
2023/05/22 03:08:01;;;;;;;9.60;5.55;;;;;;;15.78;100.00;100083.13;4991463;28;20054;-75
2023/05/22 03:10:27;;;;;;;9.88;5.55;;;;;;;15.89;100.00;100085.88;4991362;28;20081;-80
2023/05/22 03:12:52;;;;;;;11.40;5.07;;;;;;;15.95;100.00;100088.53;4991422;28;20456;-74
2023/05/22 03:15:18;;;;;;;13.05;5.93;;;;;;;15.72;100.00;100080.47;4990968;28;20030;-77
2023/05/22 03:17:43;;;;;;;9.80;6.45;;;;;;;15.68;100.00;100095.19;4991332;28;20069;-75
2023/05/22 03:20:09;;;;;;;8.98;5.93;;;;;;;15.84;100.00;100082.38;4991379;28;20036;-75
2023/05/22 03:22:35;;;;;;;12.23;6.03;;;;;;;15.93;100.00;100085.03;4991077;28;20042;-79
2023/05/22 03:25:00;;;;;;;11.38;6.43;;;;;;;15.57;100.00;100020.50;4991355;28;20026;-77
2023/05/22 03:27:26;;;;;;;11.85;6.43;;;;;;;15.69;100.00;100002.41;4991511;28;20557;-76
2023/05/22 03:29:51;;;;;;;9.38;6.05;;;;;;;16.18;100.00;100080.91;4991055;28;20030;-75
2023/05/22 03:32:17;;;;;;;11.02;6.45;;;;;;;16.24;100.00;100095.72;4989980;28;20493;-75
2023/05/22 03:34:42;;;;;;;11.55;6.78;;;;;;;16.22;100.00;100087.00;4990885;28;20113;-75
2023/05/22 03:37:08;;;;;;;9.63;6.40;;;;;;;16.22;100.00;100081.81;4991105;28;20037;-76
2023/05/22 03:39:34;;;;;;;9.23;7.35;;;;;;;16.22;100.00;100087.00;4990641;28;20047;-75
2023/05/22 03:42:00;;;;;;;15.93;7.22;;;;;;;15.68;100.00;99993.69;4991026;28;20034;-74
2023/05/22 03:44:25;;;;;;;15.60;7.43;;;;;;;16.13;100.00;100081.75;4991044;28;20088;-74
2023/05/22 03:46:50;;;;;;;17.13;7.10;;;;;;;16.16;100.00;100082.66;4990830;28;20027;-73
2023/05/22 03:49:16;;;;;;;11.95;6.93;;;;;;;16.14;100.00;100071.34;4990982;28;20033;-75
2023/05/22 03:51:41;;;;;;;15.13;8.07;;;;;;;16.20;100.00;100093.97;5004982;28;20125;-75
2023/05/22 03:54:08;;;;;;;13.40;7.10;;;;;;;16.03;100.00;100083.41;4991202;28;20105;-75
2023/05/22 03:56:35;;;;;;;10.63;6.85;;;;;;;16.06;100.00;100087.75;4991059;28;20142;-75
2023/05/22 03:59:01;;;;;;;11.60;7.40;;;;;;;16.10;100.00;100097.31;4991431;28;20085;-78
2023/05/22 04:01:26;;;;;;;12.98;7.32;;;;;;;15.92;100.00;100098.91;5007954;28;20074;-75
2023/05/22 04:03:51;;;;;;;17.88;9.32;;;;;;;15.69;100.00;100096.94;4996863;28;20042;-75
2023/05/22 04:06:20;;;;;;;16.42;9.45;;;;;;;15.37;100.00;100105.25;4988040;28;20102;-73
2023/05/22 04:08:49;;;;;;;14.73;8.73;;;;;;;15.39;100.00;100094.91;4988495;28;20038;-75
2023/05/22 04:11:14;;;;;;;15.65;9.07;;;;;;;15.61;100.00;100106.38;4999427;28;20050;-76
2023/05/22 04:13:41;;;;;;;18.35;9.50;;;;;;;15.67;100.00;100096.03;5013559;28;20042;-75
2023/05/22 04:16:06;;;;;;;16.77;8.88;;;;;;;15.85;100.00;100108.41;5014668;28;20034;-77
2023/05/22 04:18:32;;;;;;;14.43;8.57;;;;;;;15.94;100.00;100106.75;5012902;28;20045;-73
2023/05/22 04:20:57;;;;;;;15.10;8.07;;;;;;;15.82;100.00;100063.25;5011619;28;20065;-74
2023/05/22 04:23:23;;;;;;;12.73;8.05;;;;;;;16.17;100.00;100122.56;5011336;28;20699;-74
2023/05/22 04:25:48;;;;;;;17.60;6.95;;;;;;;16.20;100.00;100121.72;4994870;28;20069;-77
2023/05/22 04:28:16;;;;;;;12.75;7.13;;;;;;;16.22;100.00;100120.00;5010632;28;20030;-75
2023/05/22 04:30:42;;;;;;;13.23;7.20;;;;;;;16.25;100.00;100117.41;4996773;28;20104;-75
2023/05/22 04:33:08;;;;;;;11.80;6.57;;;;;;;16.37;100.00;100127.06;4994256;28;20034;-80
2023/05/22 04:35:34;;;;;;;12.15;7.20;;;;;;;16.41;100.00;100134.03;4994227;28;20044;-75
2023/05/22 04:38:02;;;;;;;13.52;7.30;;;;;;;16.47;100.00;100128.88;4994022;28;20037;-74
2023/05/22 04:40:29;;;;;;;10.52;6.47;;;;;;;16.44;100.00;100131.47;4992468;28;20088;-72
2023/05/22 04:42:54;;;;;;;12.55;6.13;;;;;;;16.41;100.00;100139.25;4993828;28;20037;-74
2023/05/22 04:45:24;;;;;;;11.50;6.88;;;;;;;16.37;100.00;100150.53;4993747;28;20034;-74
2023/05/22 04:47:51;;;;;;;8.80;5.72;;;;;;;16.31;100.00;100135.69;4994014;28;20476;-74
2023/05/22 04:50:17;;;;;;;14.18;6.28;;;;;;;16.18;100.00;100137.34;4993882;28;20038;-75
2023/05/22 04:52:43;;;;;;;14.38;6.13;;;;;;;16.11;100.00;100138.13;4992490;28;20392;-75
2023/05/22 04:55:10;;;;;;;10.27;6.57;;;;;;;16.11;100.00;100138.13;4993191;28;20027;-74
2023/05/22 04:57:37;;;;;;;13.23;6.53;;;;;;;16.12;100.00;100145.97;4993439;28;20031;-74
2023/05/22 05:00:04;;;;;;;9.57;6.72;;;;;;;16.05;100.00;100112.03;4993489;28;20030;-75
2023/05/22 05:02:29;;;;;;;15.68;7.55;;;;;;;16.12;100.00;100132.94;4993301;28;20708;-73
2023/05/22 05:04:55;;;;;;;13.65;7.00;;;;;;;15.82;100.00;100082.34;4993246;28;20037;-77
2023/05/22 05:07:20;;;;;;;14.40;6.85;;;;;;;16.00;100.00;100118.09;4993606;28;20046;-75
2023/05/22 05:09:46;;;;;;;12.32;6.65;;;;;;;16.22;100.00;100143.44;4993478;28;20030;-75
2023/05/22 05:12:11;;;;;;;8.52;5.88;;;;;;;16.19;100.00;100126.06;4993341;28;20027;-75
2023/05/22 05:14:36;;;;;;;10.90;7.00;;;;;;;16.03;100.00;100082.53;4993289;28;20460;-75
2023/05/22 05:17:03;;;;;;;12.65;6.97;;;;;;;16.50;100.00;100152.38;4993312;28;20023;-75
2023/05/22 05:19:28;;;;;;;10.98;6.60;;;;;;;16.60;100.00;100151.56;4993580;28;20026;-73
2023/05/22 05:21:54;;;;;;;12.93;6.65;;;;;;;16.69;100.00;100149.91;4993099;28;20551;-75
2023/05/22 05:24:19;;;;;;;12.55;6.55;;;;;;;16.68;100.00;100133.38;4993317;28;20049;-75
2023/05/22 05:26:45;;;;;;;15.48;6.90;;;;;;;16.81;100.00;100144.75;4993197;28;20633;-74
2023/05/22 05:29:11;;;;;;;14.57;6.57;;;;;;;16.51;100.00;100078.56;4992255;28;20030;-77
2023/05/22 05:31:37;;;;;;;17.65;6.93;;;;;;;16.80;100.00;100138.66;4983410;28;20074;-73
2023/05/22 05:34:02;;;;;;;14.55;6.78;;;;;;;16.85;100.00;100148.22;4988165;28;20046;-76
2023/05/22 05:36:28;;;;;;;18.10;7.65;;;;;;;16.89;100.00;100147.41;4973582;28;20064;-77
2023/05/22 05:38:55;;;;;;;12.60;6.63;;;;;;;16.88;100.00;100150.88;4973300;28;20388;-77
2023/05/22 05:41:21;;;;;;;12.70;7.85;;;;;;;16.93;100.00;100160.50;4985856;28;20141;-74
2023/05/22 05:43:47;;;;;;;15.23;8.18;;;;;;;17.04;100.00;100149.28;4992838;28;20605;-74
2023/05/22 05:46:13;;;;;;;17.35;8.48;;;;;;;16.91;100.00;100132.63;4992052;28;20121;-71
2023/05/22 05:48:39;;;;;;;13.00;7.78;;;;;;;17.00;100.00;100150.97;4992736;28;20053;-72
2023/05/22 05:51:05;;;;;;;11.38;6.88;;;;;;;16.71;100.00;100089.09;4992765;28;20042;-72
2023/05/22 05:53:30;;;;;;;12.65;7.63;;;;;;;17.05;100.00;100154.47;4990339;28;20034;-73
2023/05/22 05:55:56;;;;;;;15.07;7.30;;;;;;;17.25;100.00;100153.72;4992015;28;20046;-72
2023/05/22 05:58:21;;;;;;;14.55;7.43;;;;;;;17.44;100.00;100162.47;4991980;28;20036;-71
2023/05/22 06:00:47;;;;;;;12.57;7.40;;;;;;;17.54;100.00;100160.78;4992098;28;20030;-73
2023/05/22 06:03:13;;;;;;;12.02;7.07;;;;;;;17.59;100.00;100153.84;4992059;28;20045;-72
2023/05/22 06:05:38;;;;;;;14.90;7.40;;;;;;;17.59;100.00;100152.09;4992143;28;20432;-72
2023/05/22 06:08:04;;;;;;;11.98;7.28;;;;;;;17.76;100.00;100159.13;4991568;28;20452;-74
2023/05/22 06:10:30;;;;;;;9.70;6.47;;;;;;;17.79;100.00;100166.94;4991524;28;20485;-71
2023/05/22 06:12:56;;;;;;;11.45;6.93;;;;;;;17.80;100.00;100160.84;4991927;28;20061;-72
2023/05/22 06:15:21;;;;;;;14.02;7.35;;;;;;;17.90;100.00;100175.66;4991626;28;20119;-71
2023/05/22 06:17:47;;;;;;;13.65;6.90;;;;;;;17.99;100.00;100166.16;4989727;28;20038;-72
2023/05/22 06:20:13;;;;;;;11.75;7.13;;;;;;;17.32;100.00;100055.47;4992237;28;20392;-71
2023/05/22 06:22:38;;;;;;;15.13;7.63;;;;;;;17.86;100.00;100166.09;4991338;28;20499;-71
2023/05/22 06:25:04;;;;;;;16.23;7.40;;;;;;;17.98;100.00;100169.63;4992068;28;20034;-74
2023/05/22 06:27:30;;;;;;;10.93;7.18;;;;;;;17.92;100.00;100155.66;4991791;28;20546;-75
2023/05/22 06:29:55;;;;;;;15.77;7.35;;;;;;;18.07;100.00;100164.44;4991918;28;20069;-71
2023/05/22 06:32:21;;;;;;;12.98;6.75;;;;;;;18.14;100.00;100162.69;4991260;28;20048;-71
2023/05/22 06:34:48;;;;;;;11.23;5.45;;;;;;;18.03;98.69;100160.03;4981891;28;20500;-74
2023/05/22 06:37:14;;;;;;;10.63;5.45;;;;;;;18.09;99.13;100165.28;4971762;28;20030;-78
2023/05/22 06:39:40;;;;;;;12.80;5.80;;;;;;;18.15;97.50;100167.91;4990209;28;20133;-74
2023/05/22 06:42:05;;;;;;;11.02;5.53;;;;;;;18.14;97.85;100147.88;4989437;28;20030;-74
2023/05/22 06:44:31;;;;;;;10.73;6.20;;;;;;;17.98;97.88;100120.00;4989057;28;20484;-74
2023/05/22 06:46:57;;;;;;;9.38;5.60;;;;;;;17.95;98.55;100118.25;4990506;28;20021;-75
2023/05/22 06:49:22;;;;;;;12.98;5.78;;;;;;;18.21;97.59;100154.84;4976452;28;20167;-74
2023/05/22 06:51:48;;;;;;;14.15;6.35;;;;;;;18.39;97.08;100163.56;4989977;28;20469;-75
2023/05/22 06:54:14;;;;;;;12.88;6.70;;;;;;;18.52;95.84;100174.91;4988764;28;20112;-75
2023/05/22 06:56:40;;;;;;;16.50;6.78;;;;;;;18.58;95.54;100186.22;4980087;28;20031;-75
2023/05/22 06:59:05;;;;;;;14.70;5.95;;;;;;;18.53;95.22;100158.31;4987447;28;20031;-74
2023/05/22 07:01:31;;;;;;;13.40;6.50;;;;;;;18.67;95.02;100181.88;4989796;28;20089;-76
2023/05/22 07:03:59;;;;;;;11.95;6.53;;;;;;;18.62;94.97;100176.63;4991030;28;20034;-77
2023/05/22 07:06:25;;;;;;;11.65;6.30;;;;;;;18.78;95.60;100194.91;4990752;28;20030;-76
2023/05/22 07:08:50;;;;;;;13.90;6.93;;;;;;;18.83;98.22;100191.41;4991101;28;20067;-76
2023/05/22 07:11:16;;;;;;;12.90;7.18;;;;;;;18.84;97.53;100192.28;4991102;28;20037;-76
2023/05/22 07:13:41;;;;;;;12.88;6.82;;;;;;;18.87;96.87;100190.53;4990953;28;20112;-77
2023/05/22 07:16:06;;;;;;;15.20;7.10;;;;;;;18.76;96.49;100169.63;4991209;28;20496;-76
2023/05/22 07:18:32;;;;;;;17.33;6.85;;;;;;;18.88;96.07;100178.34;4990973;28;20050;-77
2023/05/22 07:20:57;;;;;;;18.35;7.60;;;;;;;18.64;98.25;100130.44;4989606;28;20030;-76
2023/05/22 07:23:23;;;;;;;12.90;6.53;;;;;;;18.97;97.61;100182.72;4990297;28;20069;-76
2023/05/22 07:25:48;;;;;;;15.45;7.53;;;;;;;18.64;97.17;100129.56;4991011;28;20038;-79
2023/05/22 07:28:14;;;;;;;13.98;7.38;;;;;;;18.99;95.13;100192.31;4991005;28;20034;-78
2023/05/22 07:30:40;;;;;;;11.50;6.75;;;;;;;18.94;96.10;100178.38;4990821;28;20050;-79
2023/05/22 07:33:05;;;;;;;14.55;6.10;;;;;;;18.91;93.39;100184.44;4990855;28;20378;-78
2023/05/22 07:35:31;;;;;;;10.13;6.18;;;;;;;18.97;96.24;100186.19;4990906;28;20184;-79
2023/05/22 07:37:56;;;;;;;13.15;6.30;;;;;;;19.00;96.35;100190.53;4989245;28;20038;-78
2023/05/22 07:40:22;;;;;;;13.68;5.90;;;;;;;18.51;nan;100107.81;4990555;28;20409;-78
2023/05/22 07:42:47;;;;;;;10.95;5.43;;;;;;;19.01;93.82;100184.44;4989206;28;20033;-78
2023/05/22 07:45:12;;;;;;;10.88;5.32;;;;;;;19.00;92.88;100178.31;4993018;28;20122;-79
2023/05/22 07:47:38;;;;;;;9.88;5.13;;;;;;;19.07;94.69;100192.28;4991914;28;20026;-79
2023/05/22 07:50:04;;;;;;;12.68;5.70;;;;;;;18.65;95.63;100097.31;4989400;28;20382;-79
2023/05/22 07:52:32;;;;;;;8.68;4.82;;;;;;;19.22;93.11;100183.50;4993085;28;20540;-77
2023/05/22 07:54:58;;;;;;;13.18;5.95;;;;;;;19.15;91.94;100163.47;4999733;28;20035;-75
2023/05/22 07:57:23;;;;;;;12.55;6.70;;;;;;;19.34;93.52;100185.19;5001370;28;20085;-80
2023/05/22 07:59:49;;;;;;;15.95;7.78;;;;;;;18.58;93.36;100047.66;5002359;28;20094;-77
2023/05/22 08:02:17;;;;;;;18.63;8.55;;;;;;;19.44;93.59;100186.94;5009575;28;20030;-78
2023/05/22 08:04:43;;;;;;;13.52;5.70;;;;;;;19.50;91.83;100181.66;4994705;28;20045;-77
2023/05/22 08:07:09;;;;;;;11.82;5.97;;;;;;;19.49;92.47;100161.59;5009416;28;20489;-79
2023/05/22 08:09:34;;;;;;;11.93;5.57;;;;;;;19.55;90.32;100173.75;4994647;28;20065;-79
2023/05/22 08:12:00;;;;;;;11.25;4.95;;;;;;;19.32;91.27;100127.63;4992859;28;20034;-78
2023/05/22 08:14:25;;;;;;;10.13;4.88;;;;;;;19.60;90.67;100182.50;4993823;28;20034;-78
2023/05/22 08:16:51;;;;;;;8.32;4.78;;;;;;;19.64;88.40;100178.09;4999501;28;20030;-79
2023/05/22 08:19:16;;;;;;;10.93;5.38;;;;;;;19.65;91.83;100169.34;4994686;28;20052;-78
2023/05/22 08:21:42;;;;;;;12.73;4.93;;;;;;;19.71;88.65;100169.31;4992993;28;20045;-79
2023/05/22 08:24:07;;;;;;;9.30;5.10;;;;;;;19.92;89.03;100178.00;4994009;28;20477;-79
2023/05/22 08:26:33;;;;;;;12.43;4.95;;;;;;;20.04;86.95;100180.53;5005595;28;20027;-77
2023/05/22 08:28:59;;;;;;;12.13;4.72;;;;;;;20.13;87.53;100179.59;5004425;28;20104;-76
2023/05/22 08:31:24;;;;;;;6.55;4.38;;;;;;;20.17;83.87;100178.69;4997263;28;20038;-77
2023/05/22 08:33:50;;;;;;;13.45;4.97;;;;;;;20.22;85.47;100178.66;4993312;28;20026;-77
2023/05/22 08:36:15;;;;;;;8.57;4.38;;;;;;;20.28;87.38;100181.22;4993778;28;20030;-77
2023/05/22 08:38:41;;;;;;;8.00;4.22;;;;;;;20.31;84.14;100186.44;4993427;28;20042;-76
2023/05/22 08:41:07;;;;;;;12.60;5.13;;;;;;;20.31;84.04;100187.31;4993951;28;20516;-76
2023/05/22 08:43:33;;;;;;;9.45;4.60;;;;;;;20.30;83.36;100185.56;4993770;28;20034;-77
2023/05/22 08:46:04;;;;;;;8.38;4.57;;;;;;;20.36;83.09;100174.16;4993492;28;20034;-77
2023/05/22 08:48:31;;;;;;;8.00;4.30;;;;;;;20.22;83.75;100124.47;4993582;28;20400;-76
2023/05/22 08:51:01;;;;;;;10.38;4.22;;;;;;;20.41;81.45;100146.19;4995462;28;20030;-75
2023/05/22 08:53:28;;;;;;;8.90;4.00;;;;;;;20.68;83.36;100180.88;4993884;28;20473;-75
2023/05/22 08:55:55;;;;;;;9.45;4.30;;;;;;;20.83;81.72;100186.00;4993544;28;20754;-75
2023/05/22 08:58:22;;;;;;;8.20;4.57;;;;;;;20.63;81.63;100131.09;5006377;28;20531;-77
2023/05/22 09:00:48;;;;;;;12.88;4.60;;;;;;;20.87;81.56;100146.63;4993515;28;20034;-76
2023/05/22 09:03:14;;;;;;;8.27;4.20;;;;;;;21.16;81.20;100183.06;4992120;28;20186;-77
2023/05/22 09:05:40;;;;;;;10.55;4.60;;;;;;;21.15;79.28;100182.19;4993488;28;20026;-76
2023/05/22 09:08:09;;;;;;;8.23;4.10;;;;;;;21.29;81.59;100178.53;4992806;28;20485;-77
2023/05/22 09:10:35;;;;;;;8.73;4.40;;;;;;;21.37;80.43;100181.94;4992469;28;20045;-74
2023/05/22 09:13:08;;;;;;;8.93;4.65;;;;;;;21.37;77.34;100175.81;4979341;28;20125;-76
2023/05/22 09:15:35;;;;;;;9.02;4.65;;;;;;;21.41;79.04;100178.38;4977496;28;22139;-73
2023/05/22 09:18:05;;;;;;;10.23;3.90;;;;;;;21.49;78.96;100152.88;4990689;28;20030;-76
2023/05/22 09:20:37;;;;;;;9.07;3.97;;;;;;;21.63;74.44;100179.00;4978867;28;20033;-72
2023/05/22 09:23:20;;;;;;;8.73;3.63;;;;;;;21.77;73.96;100149.91;4978965;28;20031;-72
2023/05/22 09:25:46;;;;;;;9.50;4.10;;;;;;;21.95;75.89;100137.38;4975545;28;20030;-72
2023/05/22 09:28:12;;;;;;;10.23;4.40;;;;;;;22.13;73.81;100131.84;4971824;28;20038;-72
2023/05/22 09:30:37;;;;;;;6.03;3.80;;;;;;;22.18;71.01;100134.41;4985951;28;20029;-74
2023/05/22 09:33:07;;;;;;;7.88;3.85;;;;;;;22.29;73.80;100136.84;4970516;28;20116;-73
2023/05/22 09:35:35;;;;;;;8.52;3.60;;;;;;;22.20;68.76;100129.97;4971131;28;20030;-75
2023/05/22 09:38:00;;;;;;;10.25;3.78;;;;;;;22.12;67.90;100098.56;4978464;28;20037;-73
2023/05/22 09:40:28;;;;;;;6.75;3.70;;;;;;;22.45;67.44;100125.22;4970621;28;20433;-73
2023/05/22 09:42:53;;;;;;;7.95;4.32;;;;;;;22.63;72.68;100120.50;4970017;28;20035;-72
2023/05/22 09:45:22;;;;;;;11.52;4.35;;;;;;;22.60;74.60;100115.28;4970945;28;20050;-75
2023/05/22 09:47:49;;;;;;;6.80;4.95;;;;;;;22.52;73.28;100119.81;4989137;28;20030;-73
2023/05/22 09:50:15;;;;;;;9.20;4.60;;;;;;;22.47;74.16;100119.91;4983556;28;20030;-72
2023/05/22 09:52:43;;;;;;;11.35;4.28;;;;;;;22.39;73.34;100127.94;4991829;28;20092;-73
2023/05/22 09:55:09;;;;;;;7.10;4.30;;;;;;;22.33;71.71;100109.63;4991005;28;20033;-69
2023/05/22 09:57:43;;;;;;;8.60;4.35;;;;;;;22.52;70.07;100104.91;4991899;28;20031;-71
2023/05/22 10:00:13;;;;;;;8.57;4.10;;;;;;;22.46;68.21;100057.69;4985580;28;20026;-69
2023/05/22 10:02:43;;;;;;;9.27;4.70;;;;;;;23.03;70.07;100119.72;4988913;28;20077;-71
2023/05/22 10:05:09;;;;;;;10.75;4.25;;;;;;;23.15;69.92;100120.38;4991952;28;20030;-69
2023/05/22 10:07:39;;;;;;;9.98;4.47;;;;;;;23.26;71.54;100105.25;4991674;28;20057;-69
2023/05/22 10:10:08;;;;;;;8.15;4.00;;;;;;;;;;4991972;28;20027;-68
2023/05/22 10:12:41;;;;;;;9.50;3.90;;;;;;;23.34;69.96;100119.13;4991441;28;20027;-71
2023/05/22 10:15:09;;;;;;;11.80;4.22;;;;;;;22.99;68.26;100039.09;4991436;28;20097;-74
2023/05/22 10:17:35;;;;;;;6.40;4.03;;;;;;;23.48;66.22;100103.03;4991058;28;20152;-70
2023/05/22 10:20:02;;;;;;;11.52;3.80;;;;;;;23.41;62.60;100098.78;4989921;28;20520;-70
2023/05/22 10:22:29;;;;;;;8.77;3.50;;;;;;;23.41;66.28;100075.97;4979250;28;20045;-74
2023/05/22 10:24:57;;;;;;;11.90;3.80;;;;;;;23.79;70.70;100091.78;4972335;28;20030;-75
2023/05/22 10:27:22;;;;;;;10.80;3.80;;;;;;;23.88;66.01;100086.25;4978017;28;20026;-72
2023/05/22 10:30:02;;;;;;;11.73;3.88;;;;;;;24.09;67.77;100091.06;4979074;28;20731;-74
2023/05/22 10:32:38;;;;;;;7.45;3.75;;;;;;;23.82;61.65;100067.09;4974251;28;20026;-71
2023/05/22 10:35:43;;;;;;;9.15;4.00;;;;;;;23.93;62.49;100070.38;4972256;28;20031;-72
2023/05/22 10:38:17;;;;;;;9.32;4.13;;;;;;;24.14;61.80;100078.63;4971787;28;20058;-72
2023/05/22 10:40:45;;;;;;;9.25;4.13;;;;;;;24.39;64.24;100074.47;4972824;28;20106;-74
2023/05/22 10:43:11;;;;;;;8.90;3.70;;;;;;;24.53;56.98;100074.06;4988110;28;20033;-75
2023/05/22 10:45:36;;;;;;;10.00;3.65;;;;;;;24.85;58.29;100077.63;4976139;28;20026;-72
2023/05/22 10:48:06;;;;;;;9.57;3.90;;;;;;;25.22;56.86;100070.41;4970206;28;20030;-73
2023/05/22 10:50:33;;;;;;;7.55;3.65;;;;;;;25.30;56.97;100026.13;4975926;28;20023;-76
2023/05/22 10:53:27;;;;;;;10.82;4.32;;;;;;;25.75;58.31;100063.53;4962893;28;20989;-71
2023/05/22 10:55:54;;;;;;;11.45;4.32;;;;;;;25.77;57.56;100051.09;4978700;28;20070;-73
2023/05/22 10:58:36;;;;;;;11.80;4.95;;;;;;;25.42;55.57;99966.78;5009322;28;20061;-76
2023/05/22 11:01:24;;;;;;;10.40;3.70;;;;;;;25.94;52.54;100043.47;4984315;28;20168;-72
2023/05/22 11:03:55;;;;;;;8.32;4.30;;;;;;;26.14;49.79;100034.91;4989192;28;20401;-75
2023/05/22 11:06:34;;;;;;;10.90;3.78;;;;;;;25.89;51.75;99975.81;4990189;28;20053;-76
2023/05/22 11:09:15;;;;;;;7.35;3.55;;;;;;;26.24;51.21;100027.50;4989499;28;20026;-74
2023/05/22 11:11:41;;;;;;;8.43;3.55;;;;;;;26.02;50.76;99963.00;4980071;28;20022;-77
2023/05/22 11:14:06;;;;;;;8.43;4.05;;;;;;;26.51;49.55;100024.78;4990598;28;20042;-78
2023/05/22 11:16:32;;;;;;;14.77;3.83;;;;;;;26.58;51.90;100021.00;4985361;28;20046;-74
2023/05/22 11:19:06;;;;;;;6.65;3.50;;;;;;;26.66;52.21;100017.22;4987931;28;20046;-75